sensor_id;sensor_type;location;lat;lon;timestamp;P1;durP1;ratioP1;P2;durP2;ratioP2
22955;SDS011;40888;48.148;11.526;2023-05-13T00:00:16;8.47;;;7.33;;
22955;SDS011;40888;48.148;11.526;2023-05-13T00:02:42;10.00;;;8.37;;
22955;SDS011;40888;48.148;11.526;2023-05-13T00:05:09;8.70;;;7.13;;
22955;SDS011;40888;48.148;11.526;2023-05-13T00:07:34;7.87;;;5.83;;
22955;SDS011;40888;48.148;11.526;2023-05-13T00:10:00;9.87;;;7.10;;
22955;SDS011;40888;48.148;11.526;2023-05-13T00:17:58;9.13;;;7.30;;
22955;SDS011;40888;48.148;11.526;2023-05-13T00:20:24;6.90;;;6.20;;
22955;SDS011;40888;48.148;11.526;2023-05-13T00:28:17;12.00;;;9.97;;
22955;SDS011;40888;48.148;11.526;2023-05-13T00:33:41;9.07;;;8.17;;
22955;SDS011;40888;48.148;11.526;2023-05-13T00:36:13;9.33;;;7.23;;
22955;SDS011;40888;48.148;11.526;2023-05-13T00:38:38;9.90;;;8.20;;
22955;SDS011;40888;48.148;11.526;2023-05-13T00:41:04;8.53;;;7.53;;
22955;SDS011;40888;48.148;11.526;2023-05-13T00:43:30;10.40;;;7.87;;
22955;SDS011;40888;48.148;11.526;2023-05-13T00:46:02;9.23;;;7.47;;
22955;SDS011;40888;48.148;11.526;2023-05-13T00:48:29;9.33;;;8.00;;
22955;SDS011;40888;48.148;11.526;2023-05-13T00:50:56;10.60;;;9.00;;
22955;SDS011;40888;48.148;11.526;2023-05-13T00:53:22;11.10;;;8.57;;
22955;SDS011;40888;48.148;11.526;2023-05-13T00:55:47;10.20;;;7.67;;
22955;SDS011;40888;48.148;11.526;2023-05-13T00:58:15;12.50;;;10.10;;
22955;SDS011;40888;48.148;11.526;2023-05-13T01:04:03;9.80;;;8.63;;
22955;SDS011;40888;48.148;11.526;2023-05-13T01:09:24;10.17;;;8.97;;
22955;SDS011;40888;48.148;11.526;2023-05-13T01:12:15;10.97;;;9.67;;
22955;SDS011;40888;48.148;11.526;2023-05-13T01:14:51;13.07;;;9.30;;
22955;SDS011;40888;48.148;11.526;2023-05-13T01:17:31;12.50;;;10.47;;
22955;SDS011;40888;48.148;11.526;2023-05-13T01:20:05;12.73;;;10.60;;
22955;SDS011;40888;48.148;11.526;2023-05-13T01:27:45;14.60;;;10.70;;
22955;SDS011;40888;48.148;11.526;2023-05-13T01:30:10;12.77;;;10.53;;
22955;SDS011;40888;48.148;11.526;2023-05-13T01:32:39;15.23;;;13.00;;
22955;SDS011;40888;48.148;11.526;2023-05-13T01:35:04;13.03;;;10.90;;
22955;SDS011;40888;48.148;11.526;2023-05-13T01:37:33;13.27;;;10.37;;
22955;SDS011;40888;48.148;11.526;2023-05-13T01:40:00;14.43;;;10.63;;
22955;SDS011;40888;48.148;11.526;2023-05-13T01:42:32;14.03;;;11.27;;
22955;SDS011;40888;48.148;11.526;2023-05-13T01:50:15;19.67;;;15.73;;
22955;SDS011;40888;48.148;11.526;2023-05-13T01:52:56;15.23;;;13.10;;
22955;SDS011;40888;48.148;11.526;2023-05-13T01:57:53;17.00;;;13.80;;
22955;SDS011;40888;48.148;11.526;2023-05-13T02:00:19;14.80;;;13.30;;
22955;SDS011;40888;48.148;11.526;2023-05-13T02:02:44;17.43;;;15.63;;
22955;SDS011;40888;48.148;11.526;2023-05-13T02:05:11;15.37;;;13.83;;
22955;SDS011;40888;48.148;11.526;2023-05-13T02:07:36;20.73;;;13.67;;
22955;SDS011;40888;48.148;11.526;2023-05-13T02:10:02;14.33;;;12.83;;
22955;SDS011;40888;48.148;11.526;2023-05-13T02:12:28;21.87;;;18.50;;
22955;SDS011;40888;48.148;11.526;2023-05-13T02:14:54;19.10;;;15.87;;
22955;SDS011;40888;48.148;11.526;2023-05-13T02:17:20;17.03;;;15.23;;
22955;SDS011;40888;48.148;11.526;2023-05-13T02:19:46;16.47;;;14.67;;
22955;SDS011;40888;48.148;11.526;2023-05-13T02:22:12;17.07;;;15.47;;
22955;SDS011;40888;48.148;11.526;2023-05-13T02:24:38;19.30;;;17.30;;
22955;SDS011;40888;48.148;11.526;2023-05-13T02:27:07;17.87;;;16.07;;
22955;SDS011;40888;48.148;11.526;2023-05-13T02:29:33;17.87;;;16.17;;
22955;SDS011;40888;48.148;11.526;2023-05-13T02:32:11;19.50;;;17.50;;
22955;SDS011;40888;48.148;11.526;2023-05-13T02:37:17;19.27;;;17.13;;
22955;SDS011;40888;48.148;11.526;2023-05-13T02:39:43;19.20;;;17.27;;
22955;SDS011;40888;48.148;11.526;2023-05-13T02:42:09;20.20;;;18.00;;
22955;SDS011;40888;48.148;11.526;2023-05-13T02:44:35;20.33;;;17.73;;
22955;SDS011;40888;48.148;11.526;2023-05-13T02:47:04;19.07;;;17.17;;
22955;SDS011;40888;48.148;11.526;2023-05-13T02:49:29;19.67;;;17.63;;
22955;SDS011;40888;48.148;11.526;2023-05-13T02:51:55;21.00;;;17.23;;
22955;SDS011;40888;48.148;11.526;2023-05-13T02:54:24;22.23;;;18.73;;
22955;SDS011;40888;48.148;11.526;2023-05-13T02:56:52;20.37;;;18.03;;
22955;SDS011;40888;48.148;11.526;2023-05-13T02:59:17;27.10;;;22.13;;
22955;SDS011;40888;48.148;11.526;2023-05-13T03:01:43;31.60;;;22.70;;
22955;SDS011;40888;48.148;11.526;2023-05-13T03:04:09;21.93;;;19.53;;
22955;SDS011;40888;48.148;11.526;2023-05-13T03:06:41;28.10;;;23.60;;
22955;SDS011;40888;48.148;11.526;2023-05-13T03:09:06;23.23;;;20.73;;
22955;SDS011;40888;48.148;11.526;2023-05-13T03:11:32;23.73;;;20.33;;
22955;SDS011;40888;48.148;11.526;2023-05-13T03:13:58;27.83;;;22.53;;
22955;SDS011;40888;48.148;11.526;2023-05-13T03:16:33;24.17;;;19.07;;
22955;SDS011;40888;48.148;11.526;2023-05-13T03:18:58;20.93;;;18.67;;
22955;SDS011;40888;48.148;11.526;2023-05-13T03:21:24;23.67;;;19.57;;
22955;SDS011;40888;48.148;11.526;2023-05-13T03:26:24;22.20;;;19.37;;
22955;SDS011;40888;48.148;11.526;2023-05-13T03:28:50;22.43;;;19.07;;
22955;SDS011;40888;48.148;11.526;2023-05-13T03:31:29;26.97;;;23.27;;
22955;SDS011;40888;48.148;11.526;2023-05-13T03:33:56;19.90;;;17.70;;
22955;SDS011;40888;48.148;11.526;2023-05-13T03:36:21;19.90;;;17.93;;
22955;SDS011;40888;48.148;11.526;2023-05-13T03:38:48;19.17;;;16.73;;
22955;SDS011;40888;48.148;11.526;2023-05-13T03:41:13;19.50;;;17.40;;
22955;SDS011;40888;48.148;11.526;2023-05-13T03:43:41;19.47;;;17.37;;
22955;SDS011;40888;48.148;11.526;2023-05-13T03:46:08;18.70;;;16.07;;
22955;SDS011;40888;48.148;11.526;2023-05-13T03:48:34;17.23;;;15.40;;
22955;SDS011;40888;48.148;11.526;2023-05-13T03:51:00;19.27;;;17.33;;
22955;SDS011;40888;48.148;11.526;2023-05-13T03:53:26;24.20;;;21.50;;
22955;SDS011;40888;48.148;11.526;2023-05-13T03:55:55;19.93;;;17.50;;
22955;SDS011;40888;48.148;11.526;2023-05-13T03:58:21;23.73;;;21.23;;
22955;SDS011;40888;48.148;11.526;2023-05-13T04:00:46;18.93;;;16.47;;
22955;SDS011;40888;48.148;11.526;2023-05-13T04:03:14;21.97;;;16.83;;
22955;SDS011;40888;48.148;11.526;2023-05-13T04:05:44;19.60;;;16.83;;
22955;SDS011;40888;48.148;11.526;2023-05-13T04:08:11;20.47;;;15.00;;
22955;SDS011;40888;48.148;11.526;2023-05-13T04:10:37;20.43;;;18.23;;
22955;SDS011;40888;48.148;11.526;2023-05-13T04:13:12;18.97;;;14.30;;
22955;SDS011;40888;48.148;11.526;2023-05-13T04:15:37;21.23;;;18.20;;
22955;SDS011;40888;48.148;11.526;2023-05-13T04:18:11;23.80;;;21.27;;
22955;SDS011;40888;48.148;11.526;2023-05-13T04:20:52;23.47;;;15.60;;
22955;SDS011;40888;48.148;11.526;2023-05-13T04:23:18;21.63;;;15.67;;
22955;SDS011;40888;48.148;11.526;2023-05-13T04:25:52;20.40;;;15.40;;
22955;SDS011;40888;48.148;11.526;2023-05-13T04:28:18;19.83;;;14.77;;
22955;SDS011;40888;48.148;11.526;2023-05-13T04:30:44;22.57;;;14.67;;
22955;SDS011;40888;48.148;11.526;2023-05-13T04:33:10;18.73;;;14.27;;
22955;SDS011;40888;48.148;11.526;2023-05-13T04:35:36;25.53;;;16.13;;
22955;SDS011;40888;48.148;11.526;2023-05-13T04:38:02;19.07;;;13.77;;
22955;SDS011;40888;48.148;11.526;2023-05-13T04:40:29;21.60;;;15.87;;
22955;SDS011;40888;48.148;11.526;2023-05-13T04:42:55;21.70;;;15.40;;
22955;SDS011;40888;48.148;11.526;2023-05-13T04:45:22;20.93;;;14.97;;
22955;SDS011;40888;48.148;11.526;2023-05-13T04:47:48;22.33;;;15.43;;
22955;SDS011;40888;48.148;11.526;2023-05-13T04:50:23;22.30;;;15.47;;
22955;SDS011;40888;48.148;11.526;2023-05-13T04:52:49;20.73;;;14.47;;
22955;SDS011;40888;48.148;11.526;2023-05-13T04:55:22;20.60;;;13.90;;
22955;SDS011;40888;48.148;11.526;2023-05-13T04:57:49;20.20;;;15.37;;
22955;SDS011;40888;48.148;11.526;2023-05-13T05:00:15;22.03;;;14.77;;
22955;SDS011;40888;48.148;11.526;2023-05-13T05:02:41;20.80;;;15.13;;
22955;SDS011;40888;48.148;11.526;2023-05-13T05:05:07;23.47;;;16.13;;
22955;SDS011;40888;48.148;11.526;2023-05-13T05:07:33;23.07;;;17.20;;
22955;SDS011;40888;48.148;11.526;2023-05-13T05:09:58;24.57;;;15.93;;
22955;SDS011;40888;48.148;11.526;2023-05-13T05:12:37;19.67;;;15.37;;
22955;SDS011;40888;48.148;11.526;2023-05-13T05:15:15;25.73;;;16.93;;
22955;SDS011;40888;48.148;11.526;2023-05-13T05:17:41;22.30;;;16.53;;
22955;SDS011;40888;48.148;11.526;2023-05-13T05:20:08;25.20;;;16.43;;
22955;SDS011;40888;48.148;11.526;2023-05-13T05:22:38;22.87;;;16.00;;
22955;SDS011;40888;48.148;11.526;2023-05-13T05:25:06;22.50;;;15.33;;
22955;SDS011;40888;48.148;11.526;2023-05-13T05:27:32;22.77;;;15.70;;
22955;SDS011;40888;48.148;11.526;2023-05-13T05:29:59;22.13;;;15.97;;
22955;SDS011;40888;48.148;11.526;2023-05-13T05:32:32;24.87;;;16.80;;
22955;SDS011;40888;48.148;11.526;2023-05-13T05:35:03;24.97;;;17.47;;
22955;SDS011;40888;48.148;11.526;2023-05-13T05:37:30;19.90;;;14.87;;
22955;SDS011;40888;48.148;11.526;2023-05-13T05:39:57;26.83;;;16.80;;
22955;SDS011;40888;48.148;11.526;2023-05-13T05:44:53;21.47;;;14.33;;
22955;SDS011;40888;48.148;11.526;2023-05-13T05:47:20;21.53;;;14.10;;
22955;SDS011;40888;48.148;11.526;2023-05-13T05:49:46;21.40;;;15.33;;
22955;SDS011;40888;48.148;11.526;2023-05-13T05:52:12;20.47;;;14.57;;
22955;SDS011;40888;48.148;11.526;2023-05-13T05:54:38;20.87;;;13.90;;
22955;SDS011;40888;48.148;11.526;2023-05-13T05:57:03;24.13;;;15.10;;
22955;SDS011;40888;48.148;11.526;2023-05-13T05:59:29;20.37;;;14.70;;
22955;SDS011;40888;48.148;11.526;2023-05-13T06:01:55;17.93;;;13.37;;
22955;SDS011;40888;48.148;11.526;2023-05-13T06:04:28;19.90;;;14.83;;
22955;SDS011;40888;48.148;11.526;2023-05-13T06:07:03;18.87;;;13.17;;
22955;SDS011;40888;48.148;11.526;2023-05-13T06:09:28;22.30;;;13.50;;
22955;SDS011;40888;48.148;11.526;2023-05-13T06:11:54;20.20;;;13.50;;
22955;SDS011;40888;48.148;11.526;2023-05-13T06:14:20;18.20;;;13.00;;
22955;SDS011;40888;48.148;11.526;2023-05-13T06:16:47;17.37;;;12.73;;
22955;SDS011;40888;48.148;11.526;2023-05-13T06:19:12;19.67;;;12.97;;
22955;SDS011;40888;48.148;11.526;2023-05-13T06:21:38;19.63;;;13.63;;
22955;SDS011;40888;48.148;11.526;2023-05-13T06:24:04;16.83;;;11.90;;
22955;SDS011;40888;48.148;11.526;2023-05-13T06:26:30;15.97;;;12.23;;
22955;SDS011;40888;48.148;11.526;2023-05-13T06:28:56;15.20;;;10.63;;
22955;SDS011;40888;48.148;11.526;2023-05-13T06:31:22;15.93;;;11.77;;
22955;SDS011;40888;48.148;11.526;2023-05-13T06:33:47;15.37;;;11.27;;
22955;SDS011;40888;48.148;11.526;2023-05-13T06:36:13;16.43;;;11.33;;
22955;SDS011;40888;48.148;11.526;2023-05-13T06:38:39;19.30;;;12.07;;
22955;SDS011;40888;48.148;11.526;2023-05-13T06:41:05;15.53;;;10.43;;
22955;SDS011;40888;48.148;11.526;2023-05-13T06:43:30;14.93;;;10.30;;
22955;SDS011;40888;48.148;11.526;2023-05-13T06:45:56;14.30;;;10.57;;
22955;SDS011;40888;48.148;11.526;2023-05-13T06:48:22;17.87;;;10.60;;
22955;SDS011;40888;48.148;11.526;2023-05-13T06:50:47;16.30;;;11.60;;
22955;SDS011;40888;48.148;11.526;2023-05-13T06:53:14;17.00;;;11.57;;
22955;SDS011;40888;48.148;11.526;2023-05-13T06:55:39;17.13;;;11.40;;
22955;SDS011;40888;48.148;11.526;2023-05-13T06:58:06;16.30;;;12.00;;
22955;SDS011;40888;48.148;11.526;2023-05-13T07:00:39;15.33;;;10.03;;
22955;SDS011;40888;48.148;11.526;2023-05-13T07:03:05;15.43;;;10.77;;
22955;SDS011;40888;48.148;11.526;2023-05-13T07:05:31;14.73;;;9.80;;
22955;SDS011;40888;48.148;11.526;2023-05-13T07:07:58;16.33;;;10.07;;
22955;SDS011;40888;48.148;11.526;2023-05-13T07:10:23;12.67;;;9.13;;
22955;SDS011;40888;48.148;11.526;2023-05-13T07:12:49;12.70;;;9.93;;
22955;SDS011;40888;48.148;11.526;2023-05-13T07:15:15;16.20;;;10.23;;
22955;SDS011;40888;48.148;11.526;2023-05-13T07:17:41;13.80;;;9.87;;
22955;SDS011;40888;48.148;11.526;2023-05-13T07:20:07;18.37;;;11.57;;
22955;SDS011;40888;48.148;11.526;2023-05-13T07:22:34;19.17;;;11.73;;
22955;SDS011;40888;48.148;11.526;2023-05-13T07:25:00;15.30;;;10.40;;
22955;SDS011;40888;48.148;11.526;2023-05-13T07:27:26;14.90;;;9.77;;
22955;SDS011;40888;48.148;11.526;2023-05-13T07:29:51;15.87;;;11.53;;
22955;SDS011;40888;48.148;11.526;2023-05-13T07:32:17;19.27;;;11.27;;
22955;SDS011;40888;48.148;11.526;2023-05-13T07:34:43;15.23;;;11.57;;
22955;SDS011;40888;48.148;11.526;2023-05-13T07:37:09;16.70;;;11.90;;
22955;SDS011;40888;48.148;11.526;2023-05-13T07:39:34;16.90;;;11.10;;
22955;SDS011;40888;48.148;11.526;2023-05-13T07:42:00;18.77;;;12.90;;
22955;SDS011;40888;48.148;11.526;2023-05-13T07:44:26;19.60;;;12.07;;
22955;SDS011;40888;48.148;11.526;2023-05-13T07:46:52;18.53;;;13.27;;
22955;SDS011;40888;48.148;11.526;2023-05-13T07:49:18;18.30;;;12.77;;
22955;SDS011;40888;48.148;11.526;2023-05-13T07:51:44;18.50;;;13.60;;
22955;SDS011;40888;48.148;11.526;2023-05-13T07:54:11;18.73;;;11.93;;
22955;SDS011;40888;48.148;11.526;2023-05-13T07:56:37;19.57;;;12.83;;
22955;SDS011;40888;48.148;11.526;2023-05-13T07:59:03;19.90;;;12.70;;
22955;SDS011;40888;48.148;11.526;2023-05-13T08:01:28;22.17;;;13.47;;
22955;SDS011;40888;48.148;11.526;2023-05-13T08:03:54;19.70;;;13.83;;
22955;SDS011;40888;48.148;11.526;2023-05-13T08:06:20;18.93;;;12.77;;
22955;SDS011;40888;48.148;11.526;2023-05-13T08:08:46;33.50;;;16.87;;
22955;SDS011;40888;48.148;11.526;2023-05-13T08:11:11;19.87;;;13.33;;
22955;SDS011;40888;48.148;11.526;2023-05-13T08:13:38;20.67;;;12.30;;
22955;SDS011;40888;48.148;11.526;2023-05-13T08:16:03;19.33;;;13.83;;
22955;SDS011;40888;48.148;11.526;2023-05-13T08:18:32;18.50;;;13.77;;
22955;SDS011;40888;48.148;11.526;2023-05-13T08:20:58;16.93;;;12.57;;
22955;SDS011;40888;48.148;11.526;2023-05-13T08:23:23;17.57;;;12.60;;
22955;SDS011;40888;48.148;11.526;2023-05-13T08:25:52;16.80;;;12.33;;
22955;SDS011;40888;48.148;11.526;2023-05-13T08:28:18;20.37;;;13.53;;
22955;SDS011;40888;48.148;11.526;2023-05-13T08:30:43;20.07;;;13.50;;
22955;SDS011;40888;48.148;11.526;2023-05-13T08:33:09;17.43;;;12.63;;
22955;SDS011;40888;48.148;11.526;2023-05-13T08:35:36;16.10;;;11.50;;
22955;SDS011;40888;48.148;11.526;2023-05-13T08:38:02;13.83;;;10.27;;
22955;SDS011;40888;48.148;11.526;2023-05-13T08:40:31;11.80;;;9.20;;
22955;SDS011;40888;48.148;11.526;2023-05-13T08:42:58;12.20;;;8.70;;
22955;SDS011;40888;48.148;11.526;2023-05-13T08:45:27;17.60;;;11.67;;
22955;SDS011;40888;48.148;11.526;2023-05-13T08:47:55;17.23;;;12.00;;
22955;SDS011;40888;48.148;11.526;2023-05-13T08:50:25;17.93;;;11.93;;
22955;SDS011;40888;48.148;11.526;2023-05-13T08:52:53;19.27;;;13.93;;
22955;SDS011;40888;48.148;11.526;2023-05-13T08:55:19;19.47;;;13.57;;
22955;SDS011;40888;48.148;11.526;2023-05-13T08:57:45;19.17;;;13.83;;
22955;SDS011;40888;48.148;11.526;2023-05-13T09:00:11;17.40;;;13.30;;
22955;SDS011;40888;48.148;11.526;2023-05-13T09:02:39;19.43;;;12.13;;
22955;SDS011;40888;48.148;11.526;2023-05-13T09:05:06;16.20;;;11.67;;
22955;SDS011;40888;48.148;11.526;2023-05-13T09:07:34;16.27;;;12.20;;
22955;SDS011;40888;48.148;11.526;2023-05-13T09:10:01;17.37;;;12.33;;
22955;SDS011;40888;48.148;11.526;2023-05-13T09:15:13;14.20;;;10.50;;
22955;SDS011;40888;48.148;11.526;2023-05-13T09:17:41;13.50;;;10.00;;
22955;SDS011;40888;48.148;11.526;2023-05-13T09:20:08;16.13;;;11.47;;
22955;SDS011;40888;48.148;11.526;2023-05-13T09:22:45;13.70;;;10.10;;
22955;SDS011;40888;48.148;11.526;2023-05-13T09:25:13;15.73;;;10.93;;
22955;SDS011;40888;48.148;11.526;2023-05-13T09:27:44;15.20;;;11.70;;
22955;SDS011;40888;48.148;11.526;2023-05-13T09:30:11;16.77;;;12.23;;
22955;SDS011;40888;48.148;11.526;2023-05-13T09:32:37;13.70;;;11.07;;
22955;SDS011;40888;48.148;11.526;2023-05-13T09:35:14;15.83;;;11.50;;
22955;SDS011;40888;48.148;11.526;2023-05-13T09:37:46;14.53;;;10.80;;
22955;SDS011;40888;48.148;11.526;2023-05-13T09:40:13;18.57;;;12.37;;
22955;SDS011;40888;48.148;11.526;2023-05-13T09:42:43;20.27;;;14.30;;
22955;SDS011;40888;48.148;11.526;2023-05-13T09:45:10;20.70;;;14.70;;
22955;SDS011;40888;48.148;11.526;2023-05-13T09:47:38;16.80;;;11.80;;
22955;SDS011;40888;48.148;11.526;2023-05-13T09:50:04;15.77;;;11.63;;
22955;SDS011;40888;48.148;11.526;2023-05-13T09:52:33;16.43;;;11.53;;
22955;SDS011;40888;48.148;11.526;2023-05-13T09:55:00;14.17;;;10.23;;
22955;SDS011;40888;48.148;11.526;2023-05-13T09:57:31;16.07;;;11.27;;
22955;SDS011;40888;48.148;11.526;2023-05-13T09:59:58;15.80;;;11.03;;
22955;SDS011;40888;48.148;11.526;2023-05-13T10:02:25;14.03;;;10.63;;
22955;SDS011;40888;48.148;11.526;2023-05-13T10:04:51;17.20;;;12.30;;
22955;SDS011;40888;48.148;11.526;2023-05-13T10:07:19;17.73;;;12.17;;
22955;SDS011;40888;48.148;11.526;2023-05-13T10:09:50;16.83;;;12.07;;
22955;SDS011;40888;48.148;11.526;2023-05-13T10:12:18;15.00;;;11.00;;
22955;SDS011;40888;48.148;11.526;2023-05-13T10:14:49;16.37;;;11.50;;
22955;SDS011;40888;48.148;11.526;2023-05-13T10:17:20;15.40;;;12.17;;
22955;SDS011;40888;48.148;11.526;2023-05-13T10:19:52;13.23;;;10.50;;
22955;SDS011;40888;48.148;11.526;2023-05-13T10:22:25;14.93;;;10.93;;
22955;SDS011;40888;48.148;11.526;2023-05-13T10:24:58;14.00;;;11.33;;
22955;SDS011;40888;48.148;11.526;2023-05-13T10:27:29;15.03;;;10.80;;
22955;SDS011;40888;48.148;11.526;2023-05-13T10:29:57;13.40;;;10.20;;
22955;SDS011;40888;48.148;11.526;2023-05-13T10:32:26;12.47;;;9.40;;
22955;SDS011;40888;48.148;11.526;2023-05-13T10:34:58;13.60;;;10.13;;
22955;SDS011;40888;48.148;11.526;2023-05-13T10:37:49;12.23;;;8.90;;
22955;SDS011;40888;48.148;11.526;2023-05-13T10:43:12;14.53;;;9.20;;
22955;SDS011;40888;48.148;11.526;2023-05-13T10:45:46;10.63;;;8.63;;
22955;SDS011;40888;48.148;11.526;2023-05-13T10:48:14;11.67;;;9.17;;
22955;SDS011;40888;48.148;11.526;2023-05-13T10:50:54;9.67;;;7.90;;
22955;SDS011;40888;48.148;11.526;2023-05-13T10:53:30;8.90;;;7.13;;
22955;SDS011;40888;48.148;11.526;2023-05-13T10:56:01;9.83;;;7.17;;
22955;SDS011;40888;48.148;11.526;2023-05-13T10:58:33;7.63;;;6.50;;
22955;SDS011;40888;48.148;11.526;2023-05-13T11:01:12;9.93;;;6.70;;
22955;SDS011;40888;48.148;11.526;2023-05-13T11:03:57;6.97;;;6.27;;
22955;SDS011;40888;48.148;11.526;2023-05-13T11:08:58;9.27;;;6.63;;
22955;SDS011;40888;48.148;11.526;2023-05-13T11:11:25;6.77;;;5.97;;
22955;SDS011;40888;48.148;11.526;2023-05-13T11:13:55;6.80;;;6.10;;
22955;SDS011;40888;48.148;11.526;2023-05-13T11:16:29;7.40;;;6.13;;
22955;SDS011;40888;48.148;11.526;2023-05-13T11:18:55;6.17;;;5.57;;
22955;SDS011;40888;48.148;11.526;2023-05-13T11:21:29;7.87;;;6.60;;
22955;SDS011;40888;48.148;11.526;2023-05-13T11:23:57;6.13;;;5.30;;
22955;SDS011;40888;48.148;11.526;2023-05-13T11:26:25;6.80;;;5.90;;
22955;SDS011;40888;48.148;11.526;2023-05-13T11:29:05;7.30;;;6.47;;
22955;SDS011;40888;48.148;11.526;2023-05-13T11:31:43;6.43;;;5.83;;
22955;SDS011;40888;48.148;11.526;2023-05-13T11:34:17;7.23;;;5.87;;
22955;SDS011;40888;48.148;11.526;2023-05-13T11:36:47;7.20;;;6.50;;
22955;SDS011;40888;48.148;11.526;2023-05-13T11:39:31;6.30;;;5.53;;
22955;SDS011;40888;48.148;11.526;2023-05-13T11:41:57;7.30;;;6.20;;
22955;SDS011;40888;48.148;11.526;2023-05-13T11:44:25;6.47;;;5.87;;
22955;SDS011;40888;48.148;11.526;2023-05-13T11:49:32;6.60;;;5.87;;
22955;SDS011;40888;48.148;11.526;2023-05-13T11:52:06;6.40;;;5.57;;
22955;SDS011;40888;48.148;11.526;2023-05-13T11:54:38;9.13;;;7.00;;
22955;SDS011;40888;48.148;11.526;2023-05-13T11:57:12;6.10;;;5.50;;
22955;SDS011;40888;48.148;11.526;2023-05-13T11:59:40;5.33;;;4.83;;
22955;SDS011;40888;48.148;11.526;2023-05-13T12:02:06;5.70;;;4.90;;
22955;SDS011;40888;48.148;11.526;2023-05-13T12:04:31;4.90;;;4.50;;
22955;SDS011;40888;48.148;11.526;2023-05-13T12:06:57;6.10;;;4.97;;
22955;SDS011;40888;48.148;11.526;2023-05-13T12:09:23;4.20;;;3.87;;
22955;SDS011;40888;48.148;11.526;2023-05-13T12:11:50;4.97;;;4.00;;
22955;SDS011;40888;48.148;11.526;2023-05-13T12:14:17;4.63;;;4.23;;
22955;SDS011;40888;48.148;11.526;2023-05-13T12:16:46;6.27;;;5.67;;
22955;SDS011;40888;48.148;11.526;2023-05-13T12:19:13;5.30;;;4.90;;
22955;SDS011;40888;48.148;11.526;2023-05-13T12:21:38;5.67;;;5.17;;
22955;SDS011;40888;48.148;11.526;2023-05-13T12:24:20;4.60;;;4.20;;
22955;SDS011;40888;48.148;11.526;2023-05-13T12:26:46;5.40;;;4.90;;
22955;SDS011;40888;48.148;11.526;2023-05-13T12:29:12;5.77;;;4.17;;
22955;SDS011;40888;48.148;11.526;2023-05-13T12:31:40;4.27;;;3.87;;
22955;SDS011;40888;48.148;11.526;2023-05-13T12:34:07;4.57;;;4.13;;
22955;SDS011;40888;48.148;11.526;2023-05-13T12:36:35;5.10;;;4.60;;
22955;SDS011;40888;48.148;11.526;2023-05-13T12:44:12;5.80;;;5.03;;
22955;SDS011;40888;48.148;11.526;2023-05-13T12:46:48;4.13;;;3.73;;
22955;SDS011;40888;48.148;11.526;2023-05-13T12:49:19;4.27;;;3.70;;
22955;SDS011;40888;48.148;11.526;2023-05-13T12:51:46;4.17;;;3.87;;
22955;SDS011;40888;48.148;11.526;2023-05-13T12:54:12;4.77;;;4.37;;
22955;SDS011;40888;48.148;11.526;2023-05-13T12:56:38;3.40;;;3.10;;
22955;SDS011;40888;48.148;11.526;2023-05-13T12:59:06;4.83;;;4.43;;
22955;SDS011;40888;48.148;11.526;2023-05-13T13:01:33;5.90;;;5.27;;
22955;SDS011;40888;48.148;11.526;2023-05-13T13:03:59;5.07;;;4.57;;
22955;SDS011;40888;48.148;11.526;2023-05-13T13:06:25;5.57;;;5.07;;
22955;SDS011;40888;48.148;11.526;2023-05-13T13:08:51;4.03;;;3.73;;
22955;SDS011;40888;48.148;11.526;2023-05-13T13:11:16;5.33;;;4.87;;
22955;SDS011;40888;48.148;11.526;2023-05-13T13:13:45;5.40;;;4.90;;
22955;SDS011;40888;48.148;11.526;2023-05-13T13:16:12;4.97;;;4.57;;
22955;SDS011;40888;48.148;11.526;2023-05-13T13:18:39;3.63;;;3.33;;
22955;SDS011;40888;48.148;11.526;2023-05-13T13:21:05;3.37;;;3.17;;
22955;SDS011;40888;48.148;11.526;2023-05-13T13:23:32;3.60;;;3.30;;
22955;SDS011;40888;48.148;11.526;2023-05-13T13:25:58;3.00;;;2.80;;
22955;SDS011;40888;48.148;11.526;2023-05-13T13:28:24;3.93;;;3.63;;
22955;SDS011;40888;48.148;11.526;2023-05-13T13:30:50;3.83;;;3.53;;
22955;SDS011;40888;48.148;11.526;2023-05-13T13:33:16;4.03;;;3.40;;
22955;SDS011;40888;48.148;11.526;2023-05-13T13:35:43;4.00;;;3.60;;
22955;SDS011;40888;48.148;11.526;2023-05-13T13:38:10;4.87;;;3.90;;
22955;SDS011;40888;48.148;11.526;2023-05-13T13:40:35;4.60;;;4.20;;
22955;SDS011;40888;48.148;11.526;2023-05-13T13:43:02;4.53;;;4.13;;
22955;SDS011;40888;48.148;11.526;2023-05-13T13:45:28;4.40;;;4.00;;
22955;SDS011;40888;48.148;11.526;2023-05-13T13:47:54;4.47;;;4.07;;
22955;SDS011;40888;48.148;11.526;2023-05-13T13:50:20;4.70;;;4.30;;
22955;SDS011;40888;48.148;11.526;2023-05-13T13:52:45;4.77;;;4.37;;
22955;SDS011;40888;48.148;11.526;2023-05-13T13:55:11;4.90;;;4.50;;
22955;SDS011;40888;48.148;11.526;2023-05-13T13:57:38;5.03;;;4.63;;
22955;SDS011;40888;48.148;11.526;2023-05-13T14:00:04;5.47;;;4.90;;
22955;SDS011;40888;48.148;11.526;2023-05-13T14:02:30;5.10;;;4.70;;
22955;SDS011;40888;48.148;11.526;2023-05-13T14:04:56;4.33;;;3.83;;
22955;SDS011;40888;48.148;11.526;2023-05-13T14:07:21;5.63;;;5.13;;
22955;SDS011;40888;48.148;11.526;2023-05-13T14:09:47;5.03;;;4.63;;
22955;SDS011;40888;48.148;11.526;2023-05-13T14:12:14;4.53;;;4.13;;
22955;SDS011;40888;48.148;11.526;2023-05-13T14:14:39;4.30;;;3.90;;
22955;SDS011;40888;48.148;11.526;2023-05-13T14:17:05;4.30;;;3.90;;
22955;SDS011;40888;48.148;11.526;2023-05-13T14:19:31;5.47;;;4.97;;
22955;SDS011;40888;48.148;11.526;2023-05-13T14:21:56;5.67;;;5.17;;
22955;SDS011;40888;48.148;11.526;2023-05-13T14:24:23;4.17;;;3.83;;
22955;SDS011;40888;48.148;11.526;2023-05-13T14:26:48;3.87;;;3.57;;
22955;SDS011;40888;48.148;11.526;2023-05-13T14:29:14;5.40;;;4.90;;
22955;SDS011;40888;48.148;11.526;2023-05-13T14:31:40;4.47;;;4.07;;
22955;SDS011;40888;48.148;11.526;2023-05-13T14:34:06;4.00;;;3.60;;
22955;SDS011;40888;48.148;11.526;2023-05-13T14:36:32;3.97;;;3.60;;
22955;SDS011;40888;48.148;11.526;2023-05-13T14:38:57;3.90;;;3.60;;
22955;SDS011;40888;48.148;11.526;2023-05-13T14:41:23;4.53;;;3.60;;
22955;SDS011;40888;48.148;11.526;2023-05-13T14:43:49;4.50;;;4.10;;
22955;SDS011;40888;48.148;11.526;2023-05-13T14:46:15;4.80;;;3.90;;
22955;SDS011;40888;48.148;11.526;2023-05-13T14:48:41;4.70;;;4.30;;
22955;SDS011;40888;48.148;11.526;2023-05-13T14:51:07;4.80;;;4.33;;
22955;SDS011;40888;48.148;11.526;2023-05-13T14:53:36;3.67;;;3.37;;
22955;SDS011;40888;48.148;11.526;2023-05-13T14:56:03;4.40;;;4.00;;
22955;SDS011;40888;48.148;11.526;2023-05-13T14:58:29;4.67;;;4.27;;
22955;SDS011;40888;48.148;11.526;2023-05-13T15:00:55;3.57;;;3.27;;
22955;SDS011;40888;48.148;11.526;2023-05-13T15:03:21;4.83;;;4.37;;
22955;SDS011;40888;48.148;11.526;2023-05-13T15:05:47;4.70;;;4.30;;
22955;SDS011;40888;48.148;11.526;2023-05-13T15:08:14;5.00;;;4.50;;
22955;SDS011;40888;48.148;11.526;2023-05-13T15:10:40;5.03;;;4.63;;
22955;SDS011;40888;48.148;11.526;2023-05-13T15:13:06;4.43;;;4.03;;
22955;SDS011;40888;48.148;11.526;2023-05-13T15:15:32;4.60;;;4.20;;
22955;SDS011;40888;48.148;11.526;2023-05-13T15:17:58;5.93;;;4.53;;